createdAt,value
2024-02-29T00:33:37.226Z,0.09
2024-02-29T00:36:18.180Z,0.02
2024-02-29T02:33:32.208Z,0.03
2024-02-29T02:35:44.087Z,0.02
2024-02-29T03:01:01.942Z,0.03
2024-02-29T03:05:47.498Z,0.02
2024-02-29T03:17:44.803Z,0.09
2024-02-29T03:19:40.016Z,0.02
2024-02-29T03:40:45.070Z,0.02
2024-02-29T03:52:48.389Z,0.03
2024-02-29T03:55:20.326Z,0.02
2024-02-29T04:44:31.012Z,0.03
2024-02-29T04:49:27.410Z,0.02
2024-02-29T05:12:33.331Z,0.03
2024-02-29T05:19:11.162Z,0.04
2024-02-29T05:23:44.237Z,0.13
2024-02-29T05:26:10.423Z,0.08
2024-02-29T05:28:23.285Z,0.1
2024-02-29T05:30:22.746Z,0.12
2024-02-29T05:33:08.139Z,0.2
2024-02-29T05:35:40.190Z,0.29
2024-02-29T05:37:59.559Z,0.42
2024-02-29T05:40:04.409Z,0.63
2024-02-29T05:41:56.412Z,0.88
2024-02-29T05:44:34.317Z,1.4
2024-02-29T05:46:58.776Z,2.22
2024-02-29T05:49:10.347Z,3.11
2024-02-29T05:51:08.070Z,4.3
2024-02-29T05:53:51.731Z,7.03
2024-02-29T05:56:22.320Z,11.16
2024-02-29T05:58:39.330Z,16.19
2024-02-29T06:00:43.041Z,21.59
2024-02-29T06:03:32.755Z,32.03
2024-02-29T06:06:08.947Z,43.7
2024-02-29T06:10:40.639Z,65.02
2024-02-29T06:12:36.910Z,76.82
2024-02-29T06:15:18.900Z,97.6
2024-02-29T06:17:47.709Z,116.88
2024-02-29T06:20:03.142Z,137.84
2024-02-29T06:22:05.188Z,156.28
2024-02-29T06:24:53.090Z,188
2024-02-29T06:27:27.791Z,221.2
2024-02-29T06:29:48.980Z,245.4
2024-02-29T06:31:56.776Z,269.6
2024-02-29T06:33:51.427Z,289.2
2024-02-29T06:36:31.873Z,317
2024-02-29T06:38:58.887Z,357.7
2024-02-29T06:41:12.584Z,406.2
2024-02-29T06:43:13.041Z,435.3
2024-02-29T06:45:59.221Z,464.1
2024-02-29T06:48:32.011Z,482.4
2024-02-29T06:50:51.563Z,514.2
2024-02-29T06:52:57.807Z,537.7
2024-02-29T06:54:50.756Z,562.7
2024-02-29T06:57:28.920Z,607.8
2024-02-29T06:59:54.236Z,645.4
2024-02-29T07:02:06.184Z,680.9
2024-02-29T07:04:04.990Z,701.4
2024-02-29T07:06:49.652Z,746.5
2024-02-29T07:09:20.929Z,779.2
2024-02-29T07:11:38.786Z,798
2024-02-29T07:13:43.362Z,829.4
2024-02-29T07:15:34.588Z,864.3
2024-02-29T07:18:12.059Z,881.6
2024-02-29T07:20:35.454Z,902
2024-02-29T07:22:45.822Z,917.7
2024-02-29T07:24:42.825Z,939.2
2024-02-29T07:27:25.937Z,964.4
2024-02-29T07:29:55.881Z,1007.3
2024-02-29T07:32:11.665Z,1043.2
2024-02-29T07:34:14.748Z,1069.7
2024-02-29T07:37:03.474Z,1100.1
2024-02-29T07:39:38.877Z,1137.6
2024-02-29T07:42:00.714Z,1176.9
2024-02-29T07:44:09.484Z,1212.1
2024-02-29T07:46:04.167Z,1262.4
2024-02-29T07:48:45.278Z,1331.8
2024-02-29T07:51:13.327Z,1404.1
2024-02-29T07:53:27.902Z,1424
2024-02-29T07:55:29.120Z,1480.3
2024-02-29T07:58:16.311Z,1528.9
2024-02-29T08:00:50.246Z,1555.2
2024-02-29T08:03:10.609Z,1580.1
2024-02-29T08:05:17.630Z,1590.4
2024-02-29T08:07:11.385Z,1610.8
2024-02-29T08:09:51.051Z,1685
2024-02-29T08:12:17.487Z,1696
2024-02-29T08:14:30.412Z,1692
2024-02-29T08:16:30.172Z,1719
2024-02-29T08:19:15.434Z,1749
2024-02-29T08:21:48.682Z,1795
2024-02-29T08:24:06.310Z,1828
2024-02-29T08:26:11.599Z,1859
2024-02-29T08:28:03.714Z,1847
2024-02-29T08:30:41.627Z,1882
2024-02-29T08:33:05.981Z,1900
2024-02-29T08:35:16.345Z,1901
2024-02-29T08:37:14.217Z,1912
2024-02-29T08:39:57.848Z,1983
2024-02-29T08:42:27.944Z,1938
2024-02-29T08:44:44.822Z,1923
2024-02-29T08:46:48.618Z,1994
2024-02-29T08:49:37.787Z,1976
2024-02-29T08:52:14.095Z,1989
2024-02-29T08:54:36.768Z,1966
2024-02-29T08:56:46.154Z,2041
2024-02-29T08:58:42.338Z,2040
2024-02-29T09:01:24.442Z,2093
2024-02-29T09:03:53.033Z,2126
2024-02-29T09:06:08.330Z,2096
2024-02-29T09:08:10.401Z,2114
2024-02-29T09:10:58.296Z,2002
2024-02-29T09:13:35.308Z,2188
2024-02-29T09:15:54.055Z,2202
2024-02-29T09:18:02.017Z,2193
2024-02-29T09:19:56.136Z,2202
2024-02-29T09:22:36.643Z,2144
2024-02-29T09:25:03.076Z,2460
2024-02-29T09:27:16.791Z,2565
2024-02-29T09:32:03.212Z,2371
2024-02-29T09:34:37.749Z,2611
2024-02-29T09:36:55.333Z,2630
2024-02-29T09:39:01.510Z,2625
2024-02-29T09:40:59.613Z,2572
2024-02-29T09:43:32.919Z,2409
2024-02-29T09:45:58.382Z,2540
2024-02-29T09:48:10.352Z,2451
2024-02-29T09:50:09.072Z,2946
2024-02-29T09:52:53.788Z,2827
2024-02-29T09:55:25.183Z,2586
2024-02-29T09:57:43.075Z,2533
2024-02-29T09:59:47.709Z,2525
2024-02-29T10:01:39.014Z,2535
2024-02-29T10:04:16.185Z,2627
2024-02-29T10:06:39.746Z,2636
2024-02-29T10:10:47.206Z,2634
2024-02-29T10:13:29.520Z,2460
2024-02-29T10:15:59.356Z,2509
2024-02-29T10:18:15.637Z,2609
2024-02-29T10:20:18.294Z,2663
2024-02-29T10:23:07.200Z,2714
2024-02-29T10:25:42.744Z,2700
2024-02-29T10:28:04.915Z,2648
2024-02-29T10:30:13.360Z,2577
2024-02-29T10:32:08.661Z,2717
2024-02-29T10:34:50.180Z,2725
2024-02-29T10:37:17.725Z,2737
2024-02-29T10:39:32.231Z,2673
2024-02-29T10:41:33.382Z,2714
2024-02-29T10:44:20.327Z,2792
2024-02-29T10:46:53.999Z,2730
2024-02-29T10:49:14.293Z,2767
2024-02-29T10:51:21.126Z,2842
2024-02-29T10:53:14.818Z,2891
2024-02-29T10:55:54.323Z,2800
2024-02-29T10:58:20.360Z,2864
2024-02-29T11:00:32.885Z,2867
2024-02-29T11:02:31.597Z,2983
2024-02-29T11:05:16.766Z,3038
2024-02-29T11:07:48.656Z,2763
2024-02-29T11:10:07.358Z,3169
2024-02-29T11:12:12.565Z,3059
2024-02-29T11:14:04.364Z,3060
2024-02-29T11:16:42.277Z,2874
2024-02-29T11:19:06.738Z,2951
2024-02-29T11:21:17.801Z,3040
2024-02-29T11:23:15.625Z,2901
2024-02-29T11:25:59.303Z,3051
2024-02-29T11:28:29.543Z,3034
2024-02-29T11:30:46.367Z,3082
2024-02-29T11:32:50.161Z,2950
2024-02-29T11:35:39.667Z,3061
2024-02-29T11:38:19.825Z,3083
2024-02-29T11:40:38.552Z,3104
2024-02-29T11:42:48.014Z,3148
2024-02-29T11:44:43.917Z,2963
2024-02-29T11:47:25.972Z,3073
2024-02-29T11:49:54.620Z,3047
2024-02-29T11:52:09.249Z,2942
2024-02-29T11:54:11.212Z,3025
2024-02-29T11:56:59.013Z,3060
2024-02-29T11:59:33.474Z,3184
2024-02-29T12:01:54.575Z,3178
2024-02-29T12:04:02.267Z,3134
2024-02-29T12:05:56.633Z,3082
2024-02-29T12:11:03.972Z,3146
2024-02-29T12:15:17.524Z,3150
2024-02-29T12:18:03.833Z,3056
2024-02-29T12:20:36.605Z,3127
2024-02-29T12:22:55.921Z,3077
2024-02-29T12:25:01.841Z,3066
2024-02-29T12:26:54.432Z,3203
2024-02-29T12:31:58.175Z,3150
2024-02-29T12:34:10.201Z,3063
2024-02-29T12:36:08.748Z,3153
2024-02-29T12:41:23.542Z,3196
2024-02-29T12:43:41.195Z,3123
2024-02-29T12:45:45.574Z,3107
2024-02-29T12:47:36.565Z,3200
2024-02-29T12:50:13.454Z,3124
2024-02-29T12:52:36.849Z,3226
2024-02-29T12:54:46.896Z,3132
2024-02-29T12:56:43.777Z,3063
2024-02-29T12:59:26.753Z,3150
2024-02-29T13:01:55.786Z,3170
2024-02-29T13:04:11.696Z,3146
2024-02-29T13:06:14.263Z,3157
2024-02-29T13:09:02.674Z,3193
2024-02-29T13:11:37.909Z,3368
2024-02-29T13:13:59.716Z,3468
2024-02-29T13:16:08.038Z,3530
2024-02-29T13:18:03.307Z,3166
2024-02-29T13:20:44.216Z,3050
2024-02-29T13:23:11.840Z,2946
2024-02-29T13:25:26.110Z,3080
2024-02-29T13:27:27.026Z,3130
2024-02-29T13:30:13.207Z,3338
2024-02-29T13:32:46.528Z,3066
2024-02-29T13:35:06.653Z,3019
2024-02-29T13:37:13.581Z,3051
2024-02-29T13:39:06.675Z,3047
2024-02-29T13:41:45.982Z,3014
2024-02-29T13:44:11.883Z,3073
2024-02-29T13:46:24.452Z,3125
2024-02-29T13:48:23.707Z,2968
2024-02-29T13:51:08.777Z,2895
2024-02-29T13:53:40.513Z,2836
2024-02-29T13:55:58.761Z,2837
2024-02-29T13:58:03.900Z,2809
2024-02-29T13:59:55.538Z,2821
2024-02-29T14:02:32.938Z,3778
2024-02-29T14:04:57.242Z,2822
2024-02-29T14:07:08.200Z,2790
2024-02-29T14:09:05.669Z,2737
2024-02-29T14:11:49.124Z,2720
2024-02-29T14:14:19.285Z,2690
2024-02-29T14:16:35.900Z,2694
2024-02-29T14:18:39.072Z,3065
2024-02-29T14:21:28.009Z,2732
2024-02-29T14:24:03.881Z,2702
2024-02-29T14:26:26.295Z,3171
2024-02-29T14:28:35.507Z,6694
2024-02-29T14:30:31.409Z,2588
2024-02-29T14:33:13.011Z,2587
2024-02-29T14:35:41.402Z,6087
2024-02-29T14:37:56.420Z,8225
2024-02-29T14:39:58.001Z,6760
2024-02-29T14:42:45.681Z,5862
2024-02-29T14:45:20.290Z,5767
2024-02-29T14:47:40.513Z,4354
2024-02-29T14:49:47.831Z,7060
2024-02-29T14:51:41.972Z,5329
2024-02-29T14:54:21.892Z,2732
2024-02-29T14:56:48.347Z,2325
2024-02-29T15:01:01.904Z,2304
2024-02-29T15:03:47.372Z,7088
2024-02-29T15:06:19.939Z,10224
2024-02-29T15:10:44.128Z,2437
2024-02-29T15:12:36.744Z,5875
2024-02-29T15:15:14.972Z,3215
2024-02-29T15:17:21.876Z,1831
2024-02-29T15:19:15.459Z,1725
2024-02-29T15:21:54.605Z,1665
2024-02-29T15:24:20.690Z,1599.3
2024-02-29T15:26:33.391Z,1564.1
2024-02-29T15:28:32.705Z,1512.3
2024-02-29T15:31:17.986Z,1436.8
2024-02-29T15:33:49.839Z,1404.8
2024-02-29T15:36:08.310Z,1395.2
2024-02-29T15:38:13.601Z,1357.4
2024-02-29T15:40:05.608Z,1320.3
2024-02-29T15:42:43.296Z,1276.1
2024-02-29T15:45:07.568Z,1241.9
2024-02-29T15:47:18.572Z,1194.5
2024-02-29T15:49:16.326Z,1160.9
2024-02-29T15:51:59.773Z,1107.5
2024-02-29T15:54:30.049Z,1044.8
2024-02-29T15:56:46.361Z,986.5
2024-02-29T15:58:49.731Z,959.3
2024-02-29T16:01:39.312Z,935.6
2024-02-29T16:04:15.505Z,860.4
2024-02-29T16:06:38.129Z,823.6
2024-02-29T16:10:43.466Z,735.3
2024-02-29T16:13:25.782Z,698.5
2024-02-29T16:15:53.795Z,669.7
2024-02-29T16:18:09.171Z,649.9
2024-02-29T16:20:10.989Z,637.2
2024-02-29T16:22:58.667Z,623.8
2024-02-29T16:25:33.297Z,586.8
2024-02-29T16:27:54.434Z,552
2024-02-29T16:30:02.065Z,510.5
2024-02-29T16:31:56.566Z,481.2
2024-02-29T16:34:36.945Z,450.5
2024-02-29T16:37:03.845Z,419.2
2024-02-29T16:39:17.372Z,395.8
2024-02-29T16:41:17.745Z,376.3
2024-02-29T16:44:03.885Z,336.9
2024-02-29T16:46:36.110Z,297.8
2024-02-29T16:48:55.844Z,263.2
2024-02-29T16:51:01.649Z,232.8
2024-02-29T16:52:54.355Z,209.4
2024-02-29T16:55:33.210Z,175.5
2024-02-29T16:57:58.659Z,148.64
2024-02-29T17:00:10.594Z,123.12
2024-02-29T17:02:09.519Z,103.96
2024-02-29T17:04:53.932Z,77.98
2024-02-29T17:07:25.155Z,60.26
2024-02-29T17:09:42.917Z,46.68
2024-02-29T17:11:47.473Z,35.44
2024-02-29T17:13:38.651Z,27.93
2024-02-29T17:16:15.655Z,20.35
2024-02-29T17:18:39.413Z,13.53
2024-02-29T17:20:49.720Z,10.09
2024-02-29T17:22:46.625Z,7.54
2024-02-29T17:25:29.703Z,4.73
2024-02-29T17:27:59.347Z,2.97
2024-02-29T17:30:15.544Z,1.99
2024-02-29T17:32:18.587Z,1.39
2024-02-29T17:35:06.900Z,0.88
2024-02-29T17:37:42.254Z,0.59
2024-02-29T17:40:04.218Z,0.43
2024-02-29T17:42:12.929Z,0.45
2024-02-29T17:44:08.179Z,0.3
2024-02-29T17:46:49.395Z,0.32
2024-02-29T17:49:17.552Z,0.21
2024-02-29T17:51:32.008Z,0.18
2024-02-29T17:56:20.345Z,0.17
2024-02-29T18:01:14.563Z,0.23
2024-02-29T18:03:21.419Z,0.24
2024-02-29T18:05:15.143Z,0.23
2024-02-29T18:07:55.785Z,0.18
2024-02-29T18:10:21.063Z,0.11
2024-02-29T18:12:34.075Z,0.1
2024-02-29T18:14:33.451Z,0.11
2024-02-29T18:17:18.888Z,0.1
2024-02-29T18:24:14.840Z,0.11
2024-02-29T18:33:20.609Z,0.1
2024-02-29T18:35:18.476Z,0.17
2024-02-29T18:38:02.280Z,0.11
2024-02-29T18:42:49.709Z,0.1
2024-02-29T18:44:54.194Z,0.17
2024-02-29T18:47:42.947Z,0.1
2024-02-29T19:04:14.177Z,0.11
2024-02-29T19:06:16.246Z,0.1
2024-02-29T19:18:01.077Z,0.08
2024-02-29T19:46:15.038Z,0.09
2024-02-29T19:50:58.322Z,0.08
2024-02-29T20:02:19.594Z,0.15
2024-02-29T20:04:43.202Z,0.08
2024-02-29T20:44:56.215Z,0.15
2024-02-29T20:47:16.500Z,0.08
2024-02-29T20:51:16.389Z,0.15
2024-02-29T20:53:56.127Z,0.1
2024-02-29T20:56:21.882Z,0.11
2024-02-29T20:58:34.438Z,0.08
2024-02-29T21:00:33.826Z,0.1
2024-02-29T21:03:19.095Z,0.15
2024-02-29T21:05:51.016Z,0.08
2024-02-29T21:33:41.693Z,0.04
2024-02-29T21:36:17.814Z,0.02
2024-02-29T21:40:49.480Z,0.03
2024-02-29T21:45:27.439Z,0.02
